sensor_id;sensor_type;location;lat;lon;timestamp;temperature;humidity
21805;DHT22;11064;47.102;15.452;2022-10-16T05:01:34;10.60;99.90
21805;DHT22;11064;47.102;15.452;2022-10-16T05:04:00;10.50;99.90
21805;DHT22;11064;47.102;15.452;2022-10-16T05:06:25;10.50;99.90
21805;DHT22;11064;47.102;15.452;2022-10-16T05:08:51;10.40;99.90
21805;DHT22;11064;47.102;15.452;2022-10-16T05:11:17;10.40;99.90
21805;DHT22;11064;47.102;15.452;2022-10-16T05:13:43;10.50;99.90
21805;DHT22;11064;47.102;15.452;2022-10-16T05:16:09;10.50;99.90
21805;DHT22;11064;47.102;15.452;2022-10-16T05:18:34;10.60;99.90
21805;DHT22;11064;47.102;15.452;2022-10-16T05:21:00;10.60;99.90
21805;DHT22;11064;47.102;15.452;2022-10-16T05:23:26;10.60;99.90
21805;DHT22;11064;47.102;15.452;2022-10-16T05:25:56;10.70;99.90
21805;DHT22;11064;47.102;15.452;2022-10-16T05:28:25;10.70;99.90
21805;DHT22;11064;47.102;15.452;2022-10-16T05:30:51;10.80;99.90
21805;DHT22;11064;47.102;15.452;2022-10-16T05:33:17;10.80;99.90
21805;DHT22;11064;47.102;15.452;2022-10-16T05:35:43;10.80;99.90
21805;DHT22;11064;47.102;15.452;2022-10-16T05:38:09;10.90;99.90
21805;DHT22;11064;47.102;15.452;2022-10-16T05:40:35;10.90;99.90
21805;DHT22;11064;47.102;15.452;2022-10-16T05:43:01;10.90;99.90
21805;DHT22;11064;47.102;15.452;2022-10-16T05:45:27;11.00;99.90
21805;DHT22;11064;47.102;15.452;2022-10-16T05:47:52;10.90;99.90
21805;DHT22;11064;47.102;15.452;2022-10-16T05:50:18;10.80;99.90
21805;DHT22;11064;47.102;15.452;2022-10-16T05:52:44;10.80;99.90
21805;DHT22;11064;47.102;15.452;2022-10-16T05:55:10;10.70;99.90
21805;DHT22;11064;47.102;15.452;2022-10-16T05:57:35;10.70;99.90
21805;DHT22;11064;47.102;15.452;2022-10-16T06:00:02;10.70;99.90
21805;DHT22;11064;47.102;15.452;2022-10-16T06:02:28;10.60;99.90
21805;DHT22;11064;47.102;15.452;2022-10-16T06:04:54;10.50;99.90
21805;DHT22;11064;47.102;15.452;2022-10-16T06:07:21;10.50;99.90
21805;DHT22;11064;47.102;15.452;2022-10-16T06:09:51;10.40;99.90
21805;DHT22;11064;47.102;15.452;2022-10-16T06:12:17;10.40;99.90
21805;DHT22;11064;47.102;15.452;2022-10-16T06:14:44;10.40;99.90
21805;DHT22;11064;47.102;15.452;2022-10-16T06:17:13;10.30;99.90
21805;DHT22;11064;47.102;15.452;2022-10-16T06:19:40;10.20;99.90
21805;DHT22;11064;47.102;15.452;2022-10-16T06:22:06;10.20;99.90
21805;DHT22;11064;47.102;15.452;2022-10-16T06:24:32;10.20;99.90
21805;DHT22;11064;47.102;15.452;2022-10-16T06:26:57;10.30;99.90
21805;DHT22;11064;47.102;15.452;2022-10-16T06:29:23;10.30;99.90
21805;DHT22;11064;47.102;15.452;2022-10-16T06:31:49;10.40;99.90
21805;DHT22;11064;47.102;15.452;2022-10-16T06:34:15;10.40;99.90
21805;DHT22;11064;47.102;15.452;2022-10-16T06:36:41;10.50;99.90
21805;DHT22;11064;47.102;15.452;2022-10-16T06:39:08;10.60;99.90
21805;DHT22;11064;47.102;15.452;2022-10-16T06:41:34;10.60;99.90
21805;DHT22;11064;47.102;15.452;2022-10-16T06:44:00;10.70;99.90
21805;DHT22;11064;47.102;15.452;2022-10-16T06:46:27;10.80;99.90
21805;DHT22;11064;47.102;15.452;2022-10-16T06:48:53;10.80;99.90
21805;DHT22;11064;47.102;15.452;2022-10-16T06:51:21;10.90;99.90
21805;DHT22;11064;47.102;15.452;2022-10-16T06:53:53;11.00;99.90
21805;DHT22;11064;47.102;15.452;2022-10-16T06:58:45;11.10;99.90
21805;DHT22;11064;47.102;15.452;2022-10-16T07:01:12;11.10;99.90
21805;DHT22;11064;47.102;15.452;2022-10-16T07:03:40;11.20;99.90
21805;DHT22;11064;47.102;15.452;2022-10-16T07:06:07;11.20;99.90
21805;DHT22;11064;47.102;15.452;2022-10-16T07:08:36;11.20;99.90
21805;DHT22;11064;47.102;15.452;2022-10-16T07:11:07;11.30;99.90
21805;DHT22;11064;47.102;15.452;2022-10-16T07:13:35;11.30;99.90
21805;DHT22;11064;47.102;15.452;2022-10-16T07:16:05;11.40;99.90
21805;DHT22;11064;47.102;15.452;2022-10-16T07:18:31;11.50;99.90
21805;DHT22;11064;47.102;15.452;2022-10-16T07:21:10;11.60;99.90
21805;DHT22;11064;47.102;15.452;2022-10-16T07:23:37;11.70;99.90
21805;DHT22;11064;47.102;15.452;2022-10-16T07:26:04;11.70;99.90
21805;DHT22;11064;47.102;15.452;2022-10-16T07:28:30;11.80;99.90
21805;DHT22;11064;47.102;15.452;2022-10-16T07:31:06;11.80;99.90
21805;DHT22;11064;47.102;15.452;2022-10-16T07:33:34;11.90;99.90
21805;DHT22;11064;47.102;15.452;2022-10-16T07:36:00;11.90;99.90
21805;DHT22;11064;47.102;15.452;2022-10-16T07:38:26;12.10;99.90
21805;DHT22;11064;47.102;15.452;2022-10-16T07:41:04;12.10;99.90
21805;DHT22;11064;47.102;15.452;2022-10-16T07:43:30;12.20;99.90
21805;DHT22;11064;47.102;15.452;2022-10-16T07:45:56;12.30;99.90
21805;DHT22;11064;47.102;15.452;2022-10-16T07:48:24;12.40;99.90
21805;DHT22;11064;47.102;15.452;2022-10-16T07:50:51;12.50;99.90
21805;DHT22;11064;47.102;15.452;2022-10-16T07:53:17;12.60;99.90
21805;DHT22;11064;47.102;15.452;2022-10-16T07:55:43;12.70;99.90
21805;DHT22;11064;47.102;15.452;2022-10-16T07:58:09;12.80;99.90
21805;DHT22;11064;47.102;15.452;2022-10-16T08:00:37;12.80;99.90
21805;DHT22;11064;47.102;15.452;2022-10-16T08:03:03;13.00;99.90
21805;DHT22;11064;47.102;15.452;2022-10-16T08:05:31;13.10;99.90
21805;DHT22;11064;47.102;15.452;2022-10-16T08:07:57;13.20;99.90
21805;DHT22;11064;47.102;15.452;2022-10-16T08:10:24;13.30;99.90
21805;DHT22;11064;47.102;15.452;2022-10-16T08:12:51;13.40;99.90
21805;DHT22;11064;47.102;15.452;2022-10-16T08:15:18;13.60;99.90
21805;DHT22;11064;47.102;15.452;2022-10-16T08:17:44;13.70;99.90
21805;DHT22;11064;47.102;15.452;2022-10-16T08:20:19;13.90;99.90
21805;DHT22;11064;47.102;15.452;2022-10-16T08:22:44;14.00;99.90
21805;DHT22;11064;47.102;15.452;2022-10-16T08:25:10;14.00;99.90
21805;DHT22;11064;47.102;15.452;2022-10-16T08:27:36;14.20;99.90
21805;DHT22;11064;47.102;15.452;2022-10-16T08:30:02;14.30;99.90
21805;DHT22;11064;47.102;15.452;2022-10-16T08:32:28;14.40;99.90
21805;DHT22;11064;47.102;15.452;2022-10-16T08:34:53;14.60;99.90
21805;DHT22;11064;47.102;15.452;2022-10-16T08:37:19;14.70;99.90
21805;DHT22;11064;47.102;15.452;2022-10-16T08:39:45;14.80;99.90
21805;DHT22;11064;47.102;15.452;2022-10-16T08:42:14;15.00;99.90
21805;DHT22;11064;47.102;15.452;2022-10-16T08:45:02;15.10;99.90
21805;DHT22;11064;47.102;15.452;2022-10-16T08:47:48;15.20;99.90
21805;DHT22;11064;47.102;15.452;2022-10-16T08:50:25;15.20;99.90
21805;DHT22;11064;47.102;15.452;2022-10-16T08:52:53;15.30;99.90
21805;DHT22;11064;47.102;15.452;2022-10-16T08:55:30;15.40;99.90
21805;DHT22;11064;47.102;15.452;2022-10-16T08:57:58;15.50;99.90
21805;DHT22;11064;47.102;15.452;2022-10-16T09:00:24;15.60;99.90
21805;DHT22;11064;47.102;15.452;2022-10-16T09:08:23;16.00;99.90
21805;DHT22;11064;47.102;15.452;2022-10-16T09:11:03;16.10;99.90
21805;DHT22;11064;47.102;15.452;2022-10-16T09:19:31;16.50;99.90
21805;DHT22;11064;47.102;15.452;2022-10-16T09:21:43;16.60;99.90
21805;DHT22;11064;47.102;15.452;2022-10-16T09:24:18;16.80;99.90
21805;DHT22;11064;47.102;15.452;2022-10-16T09:26:45;16.90;99.90
21805;DHT22;11064;47.102;15.452;2022-10-16T09:29:15;17.00;99.90
21805;DHT22;11064;47.102;15.452;2022-10-16T09:31:42;17.10;99.90
21805;DHT22;11064;47.102;15.452;2022-10-16T09:34:21;17.20;99.90
21805;DHT22;11064;47.102;15.452;2022-10-16T09:36:50;17.30;99.90
21805;DHT22;11064;47.102;15.452;2022-10-16T09:39:16;17.30;99.90
21805;DHT22;11064;47.102;15.452;2022-10-16T09:41:44;17.40;99.90
21805;DHT22;11064;47.102;15.452;2022-10-16T09:46:49;17.50;99.90
21805;DHT22;11064;47.102;15.452;2022-10-16T09:49:26;17.50;99.90
21805;DHT22;11064;47.102;15.452;2022-10-16T09:52:04;17.60;99.90
21805;DHT22;11064;47.102;15.452;2022-10-16T09:54:30;17.60;99.90
21805;DHT22;11064;47.102;15.452;2022-10-16T09:57:07;17.60;99.90
21805;DHT22;11064;47.102;15.452;2022-10-16T09:59:51;17.70;99.90
21805;DHT22;11064;47.102;15.452;2022-10-16T10:02:20;17.80;99.90
21805;DHT22;11064;47.102;15.452;2022-10-16T10:04:52;17.90;99.90
21805;DHT22;11064;47.102;15.452;2022-10-16T10:07:26;17.90;99.90
21805;DHT22;11064;47.102;15.452;2022-10-16T10:09:53;18.00;99.90
21805;DHT22;11064;47.102;15.452;2022-10-16T10:12:23;18.10;99.90
21805;DHT22;11064;47.102;15.452;2022-10-16T10:14:56;18.10;99.90
21805;DHT22;11064;47.102;15.452;2022-10-16T10:17:27;18.20;99.90
21805;DHT22;11064;47.102;15.452;2022-10-16T10:22:58;18.40;99.90
21805;DHT22;11064;47.102;15.452;2022-10-16T10:42:00;18.70;99.90
21805;DHT22;11064;47.102;15.452;2022-10-16T10:45:07;18.80;99.90
21805;DHT22;11064;47.102;15.452;2022-10-16T10:50:22;18.90;99.90
21805;DHT22;11064;47.102;15.452;2022-10-16T10:55:46;18.90;99.90
21805;DHT22;11064;47.102;15.452;2022-10-16T10:58:36;19.00;99.90
21805;DHT22;11064;47.102;15.452;2022-10-16T11:01:13;19.10;99.90
21805;DHT22;11064;47.102;15.452;2022-10-16T11:06:55;19.10;99.90
21805;DHT22;11064;47.102;15.452;2022-10-16T11:09:28;19.10;99.90
21805;DHT22;11064;47.102;15.452;2022-10-16T11:12:11;19.10;99.90
21805;DHT22;11064;47.102;15.452;2022-10-16T11:17:25;19.00;99.90
21805;DHT22;11064;47.102;15.452;2022-10-16T11:20:02;19.10;99.90
21805;DHT22;11064;47.102;15.452;2022-10-16T11:22:30;19.10;99.90
21805;DHT22;11064;47.102;15.452;2022-10-16T11:25:02;19.20;99.90
21805;DHT22;11064;47.102;15.452;2022-10-16T11:27:40;19.20;99.90
21805;DHT22;11064;47.102;15.452;2022-10-16T11:30:16;19.30;99.90
21805;DHT22;11064;47.102;15.452;2022-10-16T11:35:48;18.90;99.90
21805;DHT22;11064;47.102;15.452;2022-10-16T11:38:38;19.00;99.90
21805;DHT22;11064;47.102;15.452;2022-10-16T11:41:44;18.90;99.90
21805;DHT22;11064;47.102;15.452;2022-10-16T11:44:26;19.00;99.90
21805;DHT22;11064;47.102;15.452;2022-10-16T11:49:59;19.00;99.90
21805;DHT22;11064;47.102;15.452;2022-10-16T11:57:39;18.90;99.90
21805;DHT22;11064;47.102;15.452;2022-10-16T12:00:21;18.90;99.90
21805;DHT22;11064;47.102;15.452;2022-10-16T12:03:22;19.10;99.90
21805;DHT22;11064;47.102;15.452;2022-10-16T12:06:09;19.00;99.90
21805;DHT22;11064;47.102;15.452;2022-10-16T12:08:38;19.00;99.90
21805;DHT22;11064;47.102;15.452;2022-10-16T12:11:36;19.00;99.90
21805;DHT22;11064;47.102;15.452;2022-10-16T12:16:58;19.00;99.90
21805;DHT22;11064;47.102;15.452;2022-10-16T12:19:27;18.90;99.90
21805;DHT22;11064;47.102;15.452;2022-10-16T12:21:56;18.90;99.90
21805;DHT22;11064;47.102;15.452;2022-10-16T12:26:58;18.90;99.90
21805;DHT22;11064;47.102;15.452;2022-10-16T12:29:35;18.90;99.90
21805;DHT22;11064;47.102;15.452;2022-10-16T12:32:03;18.90;99.90
21805;DHT22;11064;47.102;15.452;2022-10-16T12:34:37;18.90;99.90
21805;DHT22;11064;47.102;15.452;2022-10-16T12:37:18;18.90;99.90
21805;DHT22;11064;47.102;15.452;2022-10-16T12:39:47;18.90;99.90
21805;DHT22;11064;47.102;15.452;2022-10-16T12:42:23;18.90;99.90
21805;DHT22;11064;47.102;15.452;2022-10-16T12:44:49;18.90;99.90
21805;DHT22;11064;47.102;15.452;2022-10-16T12:49:56;18.80;99.90
21805;DHT22;11064;47.102;15.452;2022-10-16T12:52:37;18.90;99.90
21805;DHT22;11064;47.102;15.452;2022-10-16T12:55:09;18.80;99.90
21805;DHT22;11064;47.102;15.452;2022-10-16T13:08:44;18.70;99.90
21805;DHT22;11064;47.102;15.452;2022-10-16T13:11:27;18.60;99.90
21805;DHT22;11064;47.102;15.452;2022-10-16T13:17:37;18.50;99.90
21805;DHT22;11064;47.102;15.452;2022-10-16T13:20:36;18.40;99.90
21805;DHT22;11064;47.102;15.452;2022-10-16T13:28:28;18.30;99.90
21805;DHT22;11064;47.102;15.452;2022-10-16T13:30:58;18.30;99.90
21805;DHT22;11064;47.102;15.452;2022-10-16T13:33:34;18.20;99.90
21805;DHT22;11064;47.102;15.452;2022-10-16T13:36:01;18.30;99.90
21805;DHT22;11064;47.102;15.452;2022-10-16T13:38:32;18.20;99.90
21805;DHT22;11064;47.102;15.452;2022-10-16T13:41:14;18.30;99.90
21805;DHT22;11064;47.102;15.452;2022-10-16T13:43:43;18.20;99.90
21805;DHT22;11064;47.102;15.452;2022-10-16T13:46:18;18.20;99.90
21805;DHT22;11064;47.102;15.452;2022-10-16T13:49:00;18.20;99.90
21805;DHT22;11064;47.102;15.452;2022-10-16T13:51:27;18.20;99.90
21805;DHT22;11064;47.102;15.452;2022-10-16T13:53:55;18.20;99.90
21805;DHT22;11064;47.102;15.452;2022-10-16T13:56:22;18.10;99.90
21805;DHT22;11064;47.102;15.452;2022-10-16T13:59:05;18.20;99.90
21805;DHT22;11064;47.102;15.452;2022-10-16T14:01:44;18.10;99.90
21805;DHT22;11064;47.102;15.452;2022-10-16T14:04:12;18.10;99.90
21805;DHT22;11064;47.102;15.452;2022-10-16T14:06:46;18.10;99.90
21805;DHT22;11064;47.102;15.452;2022-10-16T14:09:28;18.10;99.90
21805;DHT22;11064;47.102;15.452;2022-10-16T14:14:21;18.00;99.90
21805;DHT22;11064;47.102;15.452;2022-10-16T14:16:48;18.10;99.90
21805;DHT22;11064;47.102;15.452;2022-10-16T14:19:25;18.00;99.90
21805;DHT22;11064;47.102;15.452;2022-10-16T14:21:52;18.00;99.90
21805;DHT22;11064;47.102;15.452;2022-10-16T14:26:57;17.90;99.90
21805;DHT22;11064;47.102;15.452;2022-10-16T14:29:24;17.90;99.90
21805;DHT22;11064;47.102;15.452;2022-10-16T14:31:56;17.90;99.90
21805;DHT22;11064;47.102;15.452;2022-10-16T14:37:22;17.70;99.90
21805;DHT22;11064;47.102;15.452;2022-10-16T14:39:49;17.70;99.90
21805;DHT22;11064;47.102;15.452;2022-10-16T14:42:17;17.70;99.90
21805;DHT22;11064;47.102;15.452;2022-10-16T14:44:46;17.60;99.90
21805;DHT22;11064;47.102;15.452;2022-10-16T14:47:17;17.60;99.90
21805;DHT22;11064;47.102;15.452;2022-10-16T14:49:47;17.50;99.90
21805;DHT22;11064;47.102;15.452;2022-10-16T14:52:13;17.50;99.90
21805;DHT22;11064;47.102;15.452;2022-10-16T14:54:40;17.40;99.90
21805;DHT22;11064;47.102;15.452;2022-10-16T14:57:12;17.40;99.90
21805;DHT22;11064;47.102;15.452;2022-10-16T14:59:41;17.40;99.90
21805;DHT22;11064;47.102;15.452;2022-10-16T15:02:33;17.30;99.90
21805;DHT22;11064;47.102;15.452;2022-10-16T15:05:20;17.20;99.90
21805;DHT22;11064;47.102;15.452;2022-10-16T15:07:47;17.20;99.90
21805;DHT22;11064;47.102;15.452;2022-10-16T15:10:15;17.10;99.90
21805;DHT22;11064;47.102;15.452;2022-10-16T15:12:42;17.00;99.90
21805;DHT22;11064;47.102;15.452;2022-10-16T15:17:49;16.90;99.90
21805;DHT22;11064;47.102;15.452;2022-10-16T15:20:18;16.80;99.90
21805;DHT22;11064;47.102;15.452;2022-10-16T15:22:44;16.70;99.90
21805;DHT22;11064;47.102;15.452;2022-10-16T15:27:50;16.60;99.90
21805;DHT22;11064;47.102;15.452;2022-10-16T15:30:16;16.50;99.90
21805;DHT22;11064;47.102;15.452;2022-10-16T15:32:42;16.50;99.90
21805;DHT22;11064;47.102;15.452;2022-10-16T15:35:09;16.40;99.90
21805;DHT22;11064;47.102;15.452;2022-10-16T15:37:34;16.30;99.90
21805;DHT22;11064;47.102;15.452;2022-10-16T15:40:00;16.20;99.90
21805;DHT22;11064;47.102;15.452;2022-10-16T15:42:26;16.20;99.90
21805;DHT22;11064;47.102;15.452;2022-10-16T15:44:52;16.10;99.90
21805;DHT22;11064;47.102;15.452;2022-10-16T15:47:18;16.00;99.90
21805;DHT22;11064;47.102;15.452;2022-10-16T15:49:44;15.80;99.90
21805;DHT22;11064;47.102;15.452;2022-10-16T15:52:09;15.70;99.90
21805;DHT22;11064;47.102;15.452;2022-10-16T15:54:35;15.60;99.90
21805;DHT22;11064;47.102;15.452;2022-10-16T15:57:01;15.50;99.90
21805;DHT22;11064;47.102;15.452;2022-10-16T15:59:27;15.40;99.90
21805;DHT22;11064;47.102;15.452;2022-10-16T16:01:52;15.30;99.90
21805;DHT22;11064;47.102;15.452;2022-10-16T16:04:18;15.20;99.90
21805;DHT22;11064;47.102;15.452;2022-10-16T16:06:44;15.10;99.90
21805;DHT22;11064;47.102;15.452;2022-10-16T16:09:11;15.00;99.90
21805;DHT22;11064;47.102;15.452;2022-10-16T16:11:37;15.00;99.90
21805;DHT22;11064;47.102;15.452;2022-10-16T16:14:05;14.90;99.90
21805;DHT22;11064;47.102;15.452;2022-10-16T16:16:31;14.80;99.90
21805;DHT22;11064;47.102;15.452;2022-10-16T16:19:02;14.80;99.90
21805;DHT22;11064;47.102;15.452;2022-10-16T16:21:28;14.60;99.90
21805;DHT22;11064;47.102;15.452;2022-10-16T16:23:54;14.50;99.90
21805;DHT22;11064;47.102;15.452;2022-10-16T16:26:25;14.40;99.90
21805;DHT22;11064;47.102;15.452;2022-10-16T16:28:53;14.50;99.90
21805;DHT22;11064;47.102;15.452;2022-10-16T16:31:20;14.50;99.90
21805;DHT22;11064;47.102;15.452;2022-10-16T16:33:49;14.70;99.90
21805;DHT22;11064;47.102;15.452;2022-10-16T16:36:17;14.80;99.90
21805;DHT22;11064;47.102;15.452;2022-10-16T16:38:44;14.70;99.90
21805;DHT22;11064;47.102;15.452;2022-10-16T16:41:15;14.60;99.90
21805;DHT22;11064;47.102;15.452;2022-10-16T16:43:42;14.50;99.90
21805;DHT22;11064;47.102;15.452;2022-10-16T16:46:08;14.40;99.90
21805;DHT22;11064;47.102;15.452;2022-10-16T16:48:34;14.30;99.90
21805;DHT22;11064;47.102;15.452;2022-10-16T16:51:19;14.30;99.90
21805;DHT22;11064;47.102;15.452;2022-10-16T16:53:49;14.20;99.90
21805;DHT22;11064;47.102;15.452;2022-10-16T16:56:15;14.10;99.90
21805;DHT22;11064;47.102;15.452;2022-10-16T16:58:41;14.10;99.90
21805;DHT22;11064;47.102;15.452;2022-10-16T17:01:10;14.20;99.90
21805;DHT22;11064;47.102;15.452;2022-10-16T17:03:36;14.40;99.90
21805;DHT22;11064;47.102;15.452;2022-10-16T17:06:06;14.60;99.90
21805;DHT22;11064;47.102;15.452;2022-10-16T17:08:33;14.70;99.90
21805;DHT22;11064;47.102;15.452;2022-10-16T17:11:00;14.50;99.90
21805;DHT22;11064;47.102;15.452;2022-10-16T17:13:31;14.40;99.90
21805;DHT22;11064;47.102;15.452;2022-10-16T17:16:00;14.20;99.90
21805;DHT22;11064;47.102;15.452;2022-10-16T17:18:28;14.10;99.90
21805;DHT22;11064;47.102;15.452;2022-10-16T17:20:54;14.00;99.90
21805;DHT22;11064;47.102;15.452;2022-10-16T17:23:20;13.90;99.90
21805;DHT22;11064;47.102;15.452;2022-10-16T17:25:46;13.90;99.90
21805;DHT22;11064;47.102;15.452;2022-10-16T17:28:13;13.80;99.90
21805;DHT22;11064;47.102;15.452;2022-10-16T17:30:40;13.70;99.90
21805;DHT22;11064;47.102;15.452;2022-10-16T17:33:08;13.70;99.90
21805;DHT22;11064;47.102;15.452;2022-10-16T17:35:45;13.70;99.90
21805;DHT22;11064;47.102;15.452;2022-10-16T17:38:14;13.60;99.90
21805;DHT22;11064;47.102;15.452;2022-10-16T17:40:41;13.60;99.90
21805;DHT22;11064;47.102;15.452;2022-10-16T17:43:08;13.60;99.90
21805;DHT22;11064;47.102;15.452;2022-10-16T17:45:37;13.70;99.90
21805;DHT22;11064;47.102;15.452;2022-10-16T17:48:04;13.70;99.90
21805;DHT22;11064;47.102;15.452;2022-10-16T17:50:30;13.70;99.90
21805;DHT22;11064;47.102;15.452;2022-10-16T17:52:56;13.80;99.90
21805;DHT22;11064;47.102;15.452;2022-10-16T17:55:22;13.80;99.90
21805;DHT22;11064;47.102;15.452;2022-10-16T17:57:50;13.70;99.90
21805;DHT22;11064;47.102;15.452;2022-10-16T18:00:18;13.60;99.90
21805;DHT22;11064;47.102;15.452;2022-10-16T18:02:47;13.50;99.90
21805;DHT22;11064;47.102;15.452;2022-10-16T18:05:13;13.40;99.90
21805;DHT22;11064;47.102;15.452;2022-10-16T18:07:39;13.40;99.90
21805;DHT22;11064;47.102;15.452;2022-10-16T18:10:07;13.50;99.90
21805;DHT22;11064;47.102;15.452;2022-10-16T18:12:34;13.40;99.90
21805;DHT22;11064;47.102;15.452;2022-10-16T18:15:01;13.50;99.90
21805;DHT22;11064;47.102;15.452;2022-10-16T18:17:27;13.50;99.90
21805;DHT22;11064;47.102;15.452;2022-10-16T18:19:54;13.50;99.90
21805;DHT22;11064;47.102;15.452;2022-10-16T18:22:20;13.50;99.90
21805;DHT22;11064;47.102;15.452;2022-10-16T18:24:46;13.60;99.90
21805;DHT22;11064;47.102;15.452;2022-10-16T18:27:13;13.50;99.90
21805;DHT22;11064;47.102;15.452;2022-10-16T18:29:39;13.40;99.90
21805;DHT22;11064;47.102;15.452;2022-10-16T18:32:05;13.40;99.90
21805;DHT22;11064;47.102;15.452;2022-10-16T18:34:33;13.30;99.90
21805;DHT22;11064;47.102;15.452;2022-10-16T18:37:02;13.30;99.90
21805;DHT22;11064;47.102;15.452;2022-10-16T18:39:29;13.20;99.90
21805;DHT22;11064;47.102;15.452;2022-10-16T18:41:56;13.20;99.90
21805;DHT22;11064;47.102;15.452;2022-10-16T18:44:25;13.30;99.90
21805;DHT22;11064;47.102;15.452;2022-10-16T18:46:52;13.40;99.90
21805;DHT22;11064;47.102;15.452;2022-10-16T18:49:23;13.30;99.90
21805;DHT22;11064;47.102;15.452;2022-10-16T18:51:49;13.40;99.90
21805;DHT22;11064;47.102;15.452;2022-10-16T18:54:21;13.40;99.90
21805;DHT22;11064;47.102;15.452;2022-10-16T18:56:49;13.40;99.90
21805;DHT22;11064;47.102;15.452;2022-10-16T18:59:18;13.30;99.90
21805;DHT22;11064;47.102;15.452;2022-10-16T19:01:44;13.30;99.90
21805;DHT22;11064;47.102;15.452;2022-10-16T19:04:14;13.40;99.90
21805;DHT22;11064;47.102;15.452;2022-10-16T19:06:49;13.40;99.90
21805;DHT22;11064;47.102;15.452;2022-10-16T19:09:17;13.30;99.90
21805;DHT22;11064;47.102;15.452;2022-10-16T19:11:44;13.20;99.90
21805;DHT22;11064;47.102;15.452;2022-10-16T19:14:12;13.20;99.90
21805;DHT22;11064;47.102;15.452;2022-10-16T19:16:39;13.10;99.90
21805;DHT22;11064;47.102;15.452;2022-10-16T19:19:13;13.10;99.90
21805;DHT22;11064;47.102;15.452;2022-10-16T19:21:40;13.00;99.90
21805;DHT22;11064;47.102;15.452;2022-10-16T19:24:07;13.00;99.90
21805;DHT22;11064;47.102;15.452;2022-10-16T19:26:35;12.90;99.90
21805;DHT22;11064;47.102;15.452;2022-10-16T19:29:03;12.90;99.90
21805;DHT22;11064;47.102;15.452;2022-10-16T19:31:29;13.00;99.90
21805;DHT22;11064;47.102;15.452;2022-10-16T19:34:00;13.00;99.90
21805;DHT22;11064;47.102;15.452;2022-10-16T19:36:30;13.00;99.90
21805;DHT22;11064;47.102;15.452;2022-10-16T19:39:05;13.00;99.90
21805;DHT22;11064;47.102;15.452;2022-10-16T19:41:31;13.00;99.90
21805;DHT22;11064;47.102;15.452;2022-10-16T19:44:04;13.10;99.90
21805;DHT22;11064;47.102;15.452;2022-10-16T19:46:31;13.00;99.90
21805;DHT22;11064;47.102;15.452;2022-10-16T19:49:00;13.00;99.90
21805;DHT22;11064;47.102;15.452;2022-10-16T19:51:27;13.00;99.90
21805;DHT22;11064;47.102;15.452;2022-10-16T19:53:56;12.80;99.90
21805;DHT22;11064;47.102;15.452;2022-10-16T19:56:25;12.80;99.90
21805;DHT22;11064;47.102;15.452;2022-10-16T19:58:52;12.80;99.90
21805;DHT22;11064;47.102;15.452;2022-10-16T20:01:19;12.70;99.90
21805;DHT22;11064;47.102;15.452;2022-10-16T20:03:46;12.60;99.90
21805;DHT22;11064;47.102;15.452;2022-10-16T20:06:14;12.60;99.90
21805;DHT22;11064;47.102;15.452;2022-10-16T20:08:41;12.50;99.90
21805;DHT22;11064;47.102;15.452;2022-10-16T20:11:19;12.50;99.90
21805;DHT22;11064;47.102;15.452;2022-10-16T20:13:45;12.40;99.90
21805;DHT22;11064;47.102;15.452;2022-10-16T20:16:12;12.40;99.90
21805;DHT22;11064;47.102;15.452;2022-10-16T20:18:39;12.30;99.90
21805;DHT22;11064;47.102;15.452;2022-10-16T20:21:10;12.40;99.90
21805;DHT22;11064;47.102;15.452;2022-10-16T20:23:37;12.30;99.90
21805;DHT22;11064;47.102;15.452;2022-10-16T20:26:03;12.30;99.90
21805;DHT22;11064;47.102;15.452;2022-10-16T20:28:29;12.30;99.90
21805;DHT22;11064;47.102;15.452;2022-10-16T20:30:56;12.30;99.90
21805;DHT22;11064;47.102;15.452;2022-10-16T20:33:22;12.40;99.90
21805;DHT22;11064;47.102;15.452;2022-10-16T20:35:49;12.40;99.90
21805;DHT22;11064;47.102;15.452;2022-10-16T20:38:16;12.30;99.90
21805;DHT22;11064;47.102;15.452;2022-10-16T20:40:45;12.20;99.90
21805;DHT22;11064;47.102;15.452;2022-10-16T20:43:13;12.20;99.90
21805;DHT22;11064;47.102;15.452;2022-10-16T20:45:39;12.20;99.90
21805;DHT22;11064;47.102;15.452;2022-10-16T20:48:05;12.30;99.90
21805;DHT22;11064;47.102;15.452;2022-10-16T20:50:31;12.20;99.90
21805;DHT22;11064;47.102;15.452;2022-10-16T20:52:58;12.10;99.90
21805;DHT22;11064;47.102;15.452;2022-10-16T20:55:25;12.10;99.90
21805;DHT22;11064;47.102;15.452;2022-10-16T20:57:52;12.10;99.90
21805;DHT22;11064;47.102;15.452;2022-10-16T21:00:19;12.10;99.90
21805;DHT22;11064;47.102;15.452;2022-10-16T21:02:49;12.10;99.90
21805;DHT22;11064;47.102;15.452;2022-10-16T21:05:16;12.10;99.90
21805;DHT22;11064;47.102;15.452;2022-10-16T21:07:41;12.10;99.90
21805;DHT22;11064;47.102;15.452;2022-10-16T21:10:08;12.00;99.90
21805;DHT22;11064;47.102;15.452;2022-10-16T21:12:34;12.10;99.90
21805;DHT22;11064;47.102;15.452;2022-10-16T21:15:00;12.10;99.90
21805;DHT22;11064;47.102;15.452;2022-10-16T21:17:25;12.10;99.90
21805;DHT22;11064;47.102;15.452;2022-10-16T21:19:51;12.10;99.90
21805;DHT22;11064;47.102;15.452;2022-10-16T21:22:17;12.10;99.90
21805;DHT22;11064;47.102;15.452;2022-10-16T21:24:43;12.20;99.90
21805;DHT22;11064;47.102;15.452;2022-10-16T21:27:08;12.20;99.90
21805;DHT22;11064;47.102;15.452;2022-10-16T21:29:34;12.20;99.90
21805;DHT22;11064;47.102;15.452;2022-10-16T21:32:00;12.10;99.90
21805;DHT22;11064;47.102;15.452;2022-10-16T21:34:26;12.10;99.90
21805;DHT22;11064;47.102;15.452;2022-10-16T21:36:52;12.20;99.90
21805;DHT22;11064;47.102;15.452;2022-10-16T21:39:19;12.30;99.90
21805;DHT22;11064;47.102;15.452;2022-10-16T21:41:47;12.30;99.90
21805;DHT22;11064;47.102;15.452;2022-10-16T21:44:14;12.30;99.90
21805;DHT22;11064;47.102;15.452;2022-10-16T21:46:42;12.30;99.90
21805;DHT22;11064;47.102;15.452;2022-10-16T21:49:14;12.30;99.90
21805;DHT22;11064;47.102;15.452;2022-10-16T21:51:45;12.20;99.90
21805;DHT22;11064;47.102;15.452;2022-10-16T21:54:14;12.20;99.90
21805;DHT22;11064;47.102;15.452;2022-10-16T21:56:42;12.10;99.90
21805;DHT22;11064;47.102;15.452;2022-10-16T21:59:08;12.10;99.90
